createdAt,value
2018-12-18T00:36:49.745Z,11.50
2018-12-18T01:16:03.738Z,10.07
2018-12-18T01:18:31.171Z,7.95
2018-12-18T01:20:58.563Z,11.12
2018-12-18T01:23:26.057Z,15.73
2018-12-18T01:25:53.449Z,11.15
2018-12-18T01:28:20.874Z,22.90
2018-12-18T01:30:48.300Z,8.55
2018-12-18T01:33:15.892Z,11.20
2018-12-18T01:35:43.289Z,10.90
2018-12-18T01:38:10.714Z,11.75
2018-12-18T01:40:38.176Z,8.32
2018-12-18T01:45:32.602Z,8.63
2018-12-18T01:48:00.016Z,14.00
2018-12-18T01:50:27.420Z,10.05
2018-12-18T01:52:55.154Z,8.20
2018-12-18T01:55:22.543Z,10.02
2018-12-18T01:57:49.971Z,9.85
2018-12-18T02:00:17.366Z,8.50
2018-12-18T02:02:45.000Z,10.60
2018-12-18T02:05:12.932Z,8.57
2018-12-18T02:07:40.335Z,8.73
2018-12-18T02:10:07.759Z,7.93
2018-12-18T02:12:35.167Z,10.15
2018-12-18T02:15:03.423Z,10.68
2018-12-18T02:17:30.878Z,13.13
2018-12-18T02:19:58.301Z,11.12
2018-12-18T02:22:25.683Z,9.30
2018-12-18T02:24:53.071Z,6.00
2018-12-18T02:27:20.476Z,8.55
2018-12-18T02:29:47.876Z,7.85
2018-12-18T02:32:15.278Z,8.70
2018-12-18T02:34:42.682Z,10.73
2018-12-18T02:37:10.116Z,10.68
2018-12-18T02:39:37.524Z,10.80
2018-12-18T02:42:04.928Z,10.88
2018-12-18T02:44:32.326Z,10.45
2018-12-18T02:46:59.741Z,6.50
2018-12-18T02:49:27.165Z,15.77
2018-12-18T02:51:54.569Z,13.93
2018-12-18T02:54:21.991Z,8.07
2018-12-18T02:56:49.387Z,10.00
2018-12-18T02:59:16.817Z,10.00
2018-12-18T03:01:44.263Z,14.73
2018-12-18T03:04:12.018Z,28.70
2018-12-18T03:06:39.491Z,14.63
2018-12-18T03:09:06.911Z,10.32
2018-12-18T03:11:34.311Z,12.15
2018-12-18T03:14:01.737Z,13.32
2018-12-18T03:16:29.128Z,22.65
2018-12-18T03:18:56.545Z,15.07
2018-12-18T03:21:24.327Z,9.38
2018-12-18T03:23:51.725Z,12.00
2018-12-18T03:26:19.508Z,16.48
2018-12-18T03:28:47.116Z,16.58
2018-12-18T03:31:14.531Z,9.98
2018-12-18T03:33:42.614Z,16.42
2018-12-18T03:36:10.022Z,15.95
2018-12-18T03:38:37.661Z,21.27
2018-12-18T03:41:05.525Z,13.98
2018-12-18T03:43:32.954Z,12.40
2018-12-18T03:46:00.355Z,11.48
2018-12-18T03:48:27.809Z,11.75
2018-12-18T03:50:56.575Z,10.30
2018-12-18T03:53:24.002Z,17.12
2018-12-18T03:55:51.635Z,14.87
2018-12-18T03:58:19.097Z,17.10
2018-12-18T04:00:46.529Z,16.98
2018-12-18T04:03:14.792Z,13.65
2018-12-18T04:05:42.212Z,8.70
2018-12-18T04:08:09.881Z,20.83
2018-12-18T04:10:37.341Z,13.57
2018-12-18T04:13:04.751Z,12.15
2018-12-18T04:15:32.355Z,14.10
2018-12-18T04:17:59.771Z,10.20
2018-12-18T04:20:27.317Z,10.73
2018-12-18T04:22:54.718Z,9.68
2018-12-18T04:25:22.164Z,10.38
2018-12-18T04:27:49.641Z,9.48
2018-12-18T04:30:17.061Z,8.38
2018-12-18T04:32:44.556Z,10.10
2018-12-18T04:35:12.067Z,8.20
2018-12-18T04:37:39.546Z,10.10
2018-12-18T04:40:07.100Z,11.93
2018-12-18T04:42:34.561Z,11.50
2018-12-18T04:45:03.061Z,11.00
2018-12-18T04:47:30.459Z,10.40
2018-12-18T04:49:57.877Z,9.57
2018-12-18T04:52:25.281Z,11.77
2018-12-18T04:54:52.753Z,8.90
2018-12-18T04:57:20.165Z,10.38
2018-12-18T04:59:47.602Z,11.27
2018-12-18T05:02:15.092Z,10.48
2018-12-18T05:04:50.007Z,8.00
2018-12-18T05:07:10.245Z,11.20
2018-12-18T05:09:38.256Z,13.70
2018-12-18T05:12:06.571Z,18.02
2018-12-18T05:14:35.072Z,9.07
2018-12-18T05:17:02.518Z,13.93
2018-12-18T05:19:29.985Z,10.27
2018-12-18T05:21:58.093Z,8.85
2018-12-18T05:24:25.518Z,10.13
2018-12-18T05:26:52.969Z,8.27
2018-12-18T05:29:20.409Z,8.60
2018-12-18T05:31:47.847Z,11.98
2018-12-18T05:34:15.339Z,11.07
2018-12-18T05:36:42.819Z,10.20
2018-12-18T05:39:10.670Z,9.52
2018-12-18T05:41:38.120Z,8.48
2018-12-18T05:44:05.527Z,14.25
2018-12-18T05:46:32.937Z,8.25
2018-12-18T05:49:00.991Z,10.10
2018-12-18T05:51:28.397Z,10.30
2018-12-18T05:53:55.808Z,20.73
2018-12-18T05:56:23.282Z,15.05
2018-12-18T05:58:50.721Z,7.75
2018-12-18T06:01:18.183Z,10.52
2018-12-18T06:03:45.586Z,10.65
2018-12-18T06:06:13.585Z,19.23
2018-12-18T06:08:40.978Z,11.82
2018-12-18T06:11:08.449Z,14.80
2018-12-18T06:13:35.871Z,9.65
2018-12-18T06:16:04.460Z,11.70
2018-12-18T06:18:31.895Z,11.38
2018-12-18T06:20:59.297Z,14.00
2018-12-18T06:23:26.741Z,13.93
2018-12-18T06:25:54.129Z,9.82
2018-12-18T06:28:22.051Z,13.15
2018-12-18T06:30:49.453Z,13.15
2018-12-18T06:33:16.892Z,11.48
2018-12-18T06:35:44.407Z,11.45
2018-12-18T06:38:11.828Z,15.73
2018-12-18T06:40:39.230Z,12.25
2018-12-18T06:43:06.699Z,13.95
2018-12-18T06:45:34.140Z,14.80
2018-12-18T06:48:01.583Z,16.27
2018-12-18T06:50:28.998Z,11.65
2018-12-18T06:52:56.426Z,13.25
2018-12-18T06:55:23.853Z,23.70
2018-12-18T06:57:51.333Z,16.62
2018-12-18T07:00:18.767Z,9.50
2018-12-18T07:02:46.343Z,12.88
2018-12-18T07:05:16.822Z,12.80
2018-12-18T07:07:41.396Z,12.52
2018-12-18T07:10:08.797Z,14.82
2018-12-18T07:12:36.974Z,14.87
2018-12-18T07:15:04.383Z,15.93
2018-12-18T07:17:32.631Z,14.77
2018-12-18T07:20:00.058Z,14.65
2018-12-18T07:22:27.454Z,12.35
2018-12-18T07:24:54.897Z,15.63
2018-12-18T07:27:22.307Z,11.82
2018-12-18T07:29:49.712Z,12.20
2018-12-18T07:32:17.135Z,14.30
2018-12-18T07:34:44.529Z,16.55
2018-12-18T07:37:11.957Z,12.35
2018-12-18T07:39:39.450Z,12.80
2018-12-18T07:42:07.085Z,12.68
2018-12-18T07:44:35.641Z,17.50
2018-12-18T07:47:03.191Z,15.32
2018-12-18T07:49:30.607Z,15.15
2018-12-18T07:51:58.487Z,14.40
2018-12-18T07:54:26.072Z,19.58
2018-12-18T07:56:53.478Z,26.27
2018-12-18T07:59:20.893Z,19.90
2018-12-18T08:01:48.359Z,14.80
2018-12-18T08:04:15.761Z,22.77
2018-12-18T08:06:44.422Z,16.05
2018-12-18T08:09:11.899Z,26.67
2018-12-18T08:11:39.326Z,19.90
2018-12-18T08:14:06.742Z,32.55
2018-12-18T08:16:34.817Z,14.55
2018-12-18T08:19:02.260Z,28.92
2018-12-18T08:21:30.291Z,33.03
2018-12-18T08:23:57.972Z,21.48
2018-12-18T08:26:25.518Z,21.83
2018-12-18T08:28:52.925Z,17.30
2018-12-18T08:31:20.384Z,15.65
2018-12-18T08:33:48.607Z,22.05
2018-12-18T08:36:16.059Z,18.17
2018-12-18T08:38:43.461Z,18.85
2018-12-18T08:41:10.969Z,17.20
2018-12-18T08:43:38.380Z,19.02
2018-12-18T08:46:10.140Z,14.30
2018-12-18T08:48:33.207Z,14.27
2018-12-18T08:51:00.736Z,15.10
2018-12-18T08:53:28.152Z,17.50
2018-12-18T08:55:55.552Z,17.12
2018-12-18T08:58:22.954Z,23.55
2018-12-18T09:00:50.458Z,24.15
2018-12-18T09:03:17.913Z,20.70
2018-12-18T09:05:45.419Z,22.80
2018-12-18T09:08:12.870Z,16.20
2018-12-18T09:10:40.345Z,23.67
2018-12-18T09:30:22.849Z,18.90
2018-12-18T09:32:50.280Z,11.00
2018-12-18T09:35:17.702Z,18.48
2018-12-18T09:37:45.097Z,11.70
2018-12-18T09:40:12.549Z,12.68
2018-12-18T09:42:45.519Z,14.80
2018-12-18T09:45:12.936Z,19.25
2018-12-18T10:44:07.198Z,10.88
2018-12-18T10:46:34.680Z,5.82
2018-12-18T10:49:02.104Z,9.95
2018-12-18T10:51:29.530Z,6.57
2018-12-18T10:53:57.033Z,7.82
2018-12-18T10:56:24.472Z,11.65
2018-12-18T10:58:51.919Z,7.50
2018-12-18T11:01:25.283Z,6.45
2018-12-18T11:03:52.703Z,9.73
2018-12-18T11:06:20.144Z,5.22
2018-12-18T11:08:47.631Z,8.45
2018-12-18T11:11:15.022Z,5.62
2018-12-18T11:13:42.543Z,4.95
2018-12-18T11:16:09.936Z,9.00
2018-12-18T11:18:37.381Z,4.62
2018-12-18T11:21:04.777Z,5.12
2018-12-18T11:23:33.396Z,6.12
2018-12-18T11:26:00.795Z,5.37
2018-12-18T11:28:28.375Z,6.68
2018-12-18T11:30:56.153Z,6.65
2018-12-18T11:33:23.558Z,5.30
2018-12-18T11:35:51.311Z,6.07
2018-12-18T11:38:18.784Z,6.25
2018-12-18T11:40:46.184Z,11.18
2018-12-18T11:43:13.591Z,10.93
2018-12-18T11:45:41.005Z,6.50
2018-12-18T11:48:08.565Z,5.50
2018-12-18T11:50:35.959Z,7.18
2018-12-18T11:53:03.397Z,11.27
2018-12-18T11:55:30.894Z,7.50
2018-12-18T11:57:58.882Z,5.40
2018-12-18T12:00:26.369Z,5.15
2018-12-18T12:02:53.866Z,6.60
2018-12-18T12:05:21.314Z,5.85
2018-12-18T12:07:48.747Z,6.72
2018-12-18T12:10:16.661Z,5.03
2018-12-18T12:12:44.073Z,4.95
2018-12-18T12:15:11.508Z,10.13
2018-12-18T12:17:38.915Z,6.12
2018-12-18T12:20:06.355Z,6.03
2018-12-18T12:22:33.765Z,5.85
2018-12-18T12:25:01.223Z,10.00
2018-12-18T12:27:33.478Z,8.13
2018-12-18T12:30:01.247Z,7.30
2018-12-18T12:32:28.674Z,5.80
2018-12-18T12:34:56.607Z,6.18
2018-12-18T12:37:24.069Z,7.30
2018-12-18T12:39:54.357Z,8.10
2018-12-18T12:42:21.765Z,7.07
2018-12-18T12:44:49.194Z,5.37
2018-12-18T12:47:16.723Z,5.97
2018-12-18T12:49:44.193Z,8.60
2018-12-18T12:52:11.592Z,6.85
2018-12-18T12:54:39.826Z,6.10
2018-12-18T12:57:08.847Z,6.03
2018-12-18T12:59:36.423Z,9.30
2018-12-18T13:02:03.826Z,6.45
2018-12-18T13:04:31.316Z,6.85
2018-12-18T13:06:58.825Z,6.00
2018-12-18T13:09:26.853Z,6.10
2018-12-18T13:11:54.255Z,7.75
2018-12-18T13:14:21.770Z,7.40
2018-12-18T13:16:49.166Z,7.32
2018-12-18T13:19:16.566Z,6.30
2018-12-18T13:21:43.987Z,7.37
2018-12-18T13:24:11.560Z,6.35
2018-12-18T13:26:38.995Z,8.98
2018-12-18T13:29:06.493Z,8.63
2018-12-18T13:31:34.054Z,9.38
2018-12-18T13:34:02.073Z,8.10
2018-12-18T13:36:29.039Z,8.98
2018-12-18T13:38:56.496Z,7.90
2018-12-18T13:41:23.926Z,5.50
2018-12-18T13:43:51.350Z,7.75
2018-12-18T13:46:18.806Z,6.37
2018-12-18T13:48:46.585Z,6.70
2018-12-18T13:51:14.010Z,6.93
2018-12-18T13:53:41.457Z,7.85
2018-12-18T13:56:08.897Z,6.25
2018-12-18T13:58:36.376Z,7.45
2018-12-18T14:01:03.828Z,11.45
2018-12-18T14:03:31.282Z,6.30
2018-12-18T14:05:58.676Z,7.53
2018-12-18T14:08:26.130Z,6.37
2018-12-18T14:10:53.736Z,6.32
2018-12-18T14:13:21.120Z,7.93
2018-12-18T14:15:48.543Z,10.73
2018-12-18T14:18:15.955Z,5.87
2018-12-18T14:20:43.367Z,6.28
2018-12-18T14:23:10.786Z,5.35
2018-12-18T14:25:38.176Z,5.82
2018-12-18T14:28:05.674Z,5.55
2018-12-18T14:30:33.219Z,10.55
2018-12-18T14:33:00.626Z,10.73
2018-12-18T14:35:28.042Z,6.25
2018-12-18T14:37:55.468Z,6.97
2018-12-18T14:40:22.856Z,5.45
2018-12-18T14:42:50.269Z,7.47
2018-12-18T14:45:17.667Z,6.95
2018-12-18T14:47:45.090Z,6.70
2018-12-18T14:50:12.490Z,6.20
2018-12-18T14:52:39.922Z,7.55
2018-12-18T14:55:07.459Z,6.50
2018-12-18T14:57:34.890Z,10.77
2018-12-18T15:00:02.300Z,8.07
2018-12-18T15:02:30.128Z,6.10
2018-12-18T15:04:57.535Z,8.23
2018-12-18T15:07:25.249Z,7.12
2018-12-18T15:09:53.000Z,6.82
2018-12-18T15:12:21.129Z,8.05
2018-12-18T15:14:48.546Z,7.20
2018-12-18T15:17:15.955Z,5.57
2018-12-18T15:19:43.380Z,9.80
2018-12-18T15:22:10.812Z,7.37
2018-12-18T15:24:38.241Z,6.50
2018-12-18T15:27:05.681Z,7.70
2018-12-18T15:29:33.768Z,7.80
2018-12-18T15:32:01.181Z,6.60
2018-12-18T15:34:28.654Z,6.35
2018-12-18T15:36:56.047Z,7.70
2018-12-18T15:39:23.483Z,5.95
2018-12-18T15:41:50.871Z,6.57
2018-12-18T15:44:18.316Z,7.40
2018-12-18T15:46:45.721Z,10.15
2018-12-18T15:49:13.294Z,9.77
2018-12-18T15:51:40.707Z,30.33
2018-12-18T15:54:08.109Z,7.65
2018-12-18T15:56:35.500Z,6.10
2018-12-18T15:59:02.971Z,7.07
2018-12-18T16:01:30.387Z,7.78
2018-12-18T16:03:58.680Z,9.77
2018-12-18T16:06:26.161Z,9.85
2018-12-18T16:08:53.556Z,6.22
2018-12-18T16:11:20.945Z,6.28
2018-12-18T16:13:48.361Z,8.27
2018-12-18T16:16:15.758Z,6.97
2018-12-18T16:18:43.241Z,8.38
2018-12-18T16:21:10.698Z,7.75
2018-12-18T16:23:38.128Z,6.10
2018-12-18T16:26:05.572Z,7.97
2018-12-18T16:28:33.009Z,8.27
2018-12-18T16:31:00.402Z,7.05
2018-12-18T16:33:27.872Z,8.43
2018-12-18T16:35:55.334Z,7.95
2018-12-18T16:38:22.871Z,8.32
2018-12-18T16:40:50.307Z,13.52
2018-12-18T16:43:17.730Z,13.23
2018-12-18T16:45:45.128Z,7.40
2018-12-18T16:48:12.559Z,8.07
2018-12-18T16:50:39.961Z,8.98
2018-12-18T16:53:07.520Z,9.55
2018-12-18T16:55:34.934Z,8.05
2018-12-18T16:58:02.327Z,8.35
2018-12-18T17:00:29.901Z,7.35
2018-12-18T17:02:57.321Z,7.15
2018-12-18T17:17:45.321Z,9.80
2018-12-18T17:20:12.754Z,10.50
2018-12-18T17:22:40.799Z,8.35
2018-12-18T17:25:08.201Z,12.68
2018-12-18T17:27:35.642Z,9.00
2018-12-18T17:30:03.412Z,23.45
2018-12-18T17:39:51.807Z,12.25
2018-12-18T17:42:19.411Z,15.20
2018-12-18T17:59:28.843Z,17.48
2018-12-18T18:01:56.339Z,15.95
2018-12-18T18:04:23.819Z,10.90
2018-12-18T18:06:51.264Z,8.23
2018-12-18T18:09:18.719Z,8.10
2018-12-18T18:11:46.143Z,8.90
2018-12-18T18:14:13.783Z,10.53
2018-12-18T18:16:41.217Z,15.82
2018-12-18T18:19:08.607Z,10.48
2018-12-18T18:21:36.041Z,15.05
2018-12-18T18:24:03.707Z,10.38
2018-12-18T18:26:32.239Z,11.30
2018-12-18T18:28:59.331Z,8.45
2018-12-18T18:31:26.719Z,17.80
2018-12-18T18:33:54.147Z,11.30
2018-12-18T18:36:21.598Z,11.35
2018-12-18T18:38:49.790Z,10.70
2018-12-18T18:41:17.203Z,15.25
2018-12-18T18:43:44.641Z,13.40
2018-12-18T18:46:12.718Z,16.15
2018-12-18T18:48:40.179Z,25.80
2018-12-18T18:51:07.796Z,13.98
2018-12-18T18:53:35.746Z,13.70
2018-12-18T18:56:03.152Z,14.13
2018-12-18T18:58:30.579Z,23.98
2018-12-18T19:00:57.981Z,12.48
2018-12-18T19:03:25.402Z,11.65
2018-12-18T19:13:13.859Z,13.30
2018-12-18T19:15:41.272Z,21.65
2018-12-18T19:18:08.733Z,14.60
2018-12-18T19:20:36.299Z,15.35
2018-12-18T19:23:03.720Z,12.35
2018-12-18T19:25:31.189Z,11.32
2018-12-18T19:52:28.720Z,16.20
2018-12-18T20:02:17.048Z,12.00
2018-12-18T20:04:44.454Z,12.75
2018-12-18T20:07:12.711Z,13.52
2018-12-18T20:09:40.308Z,13.80
2018-12-18T20:12:08.990Z,12.25
2018-12-18T20:14:35.954Z,18.25
2018-12-18T20:17:03.376Z,16.73
2018-12-18T20:19:30.871Z,16.65
2018-12-18T20:21:59.076Z,16.02
2018-12-18T20:24:27.759Z,12.60
2018-12-18T20:26:55.332Z,17.02
2018-12-18T20:29:22.806Z,16.15
2018-12-18T20:31:50.206Z,15.95
2018-12-18T20:36:51.458Z,19.10
2018-12-18T20:39:19.745Z,17.98
2018-12-18T20:58:56.947Z,16.42
2018-12-18T21:01:24.676Z,17.17
2018-12-18T21:03:52.161Z,18.27
2018-12-18T21:06:19.578Z,15.60
2018-12-18T21:08:46.983Z,10.63
2018-12-18T21:11:14.433Z,16.40
2018-12-18T21:13:41.898Z,10.80
2018-12-18T21:16:09.359Z,15.82
2018-12-18T21:18:36.785Z,15.07
2018-12-18T21:21:04.173Z,14.00
2018-12-18T21:23:31.597Z,14.87
2018-12-18T21:25:59.003Z,16.48
2018-12-18T21:28:26.419Z,20.35
2018-12-18T21:35:47.781Z,11.15
2018-12-18T21:40:42.942Z,13.75
2018-12-18T21:43:10.402Z,14.90
2018-12-18T21:45:37.852Z,13.75
2018-12-18T21:48:05.291Z,12.05
2018-12-18T21:50:32.430Z,15.43
2018-12-18T21:52:59.885Z,13.65
2018-12-18T21:55:27.292Z,18.05
2018-12-18T21:57:54.695Z,18.10
2018-12-18T22:00:22.106Z,10.73
2018-12-18T22:02:49.632Z,16.23
2018-12-18T22:05:17.038Z,14.48
2018-12-18T22:07:44.508Z,13.82
2018-12-18T22:15:06.031Z,19.00
2018-12-18T22:17:33.445Z,12.52
2018-12-18T22:20:00.872Z,15.38
2018-12-18T22:22:28.312Z,12.15
2018-12-18T22:24:55.758Z,17.05
2018-12-18T22:27:23.177Z,19.55
2018-12-18T22:29:50.730Z,16.08
2018-12-18T22:32:19.248Z,11.38
2018-12-18T22:42:07.704Z,13.25
2018-12-18T22:54:23.078Z,15.40
2018-12-18T22:56:50.479Z,13.85
2018-12-18T22:59:17.897Z,13.98
2018-12-18T23:01:45.376Z,16.70
2018-12-18T23:04:12.815Z,17.10
2018-12-18T23:06:40.208Z,10.50
2018-12-18T23:09:07.606Z,18.35
2018-12-18T23:11:35.774Z,14.93
2018-12-18T23:14:03.395Z,13.00
2018-12-18T23:16:30.822Z,13.27
2018-12-18T23:18:58.285Z,16.00
2018-12-18T23:21:25.803Z,15.25
2018-12-18T23:23:53.211Z,12.48
2018-12-18T23:26:20.649Z,14.70
2018-12-18T23:28:48.076Z,13.23
2018-12-18T23:31:15.486Z,17.27
2018-12-18T23:33:42.908Z,12.23
2018-12-18T23:36:10.372Z,13.73
2018-12-18T23:38:37.746Z,16.92
2018-12-18T23:41:05.203Z,14.57
2018-12-18T23:43:32.610Z,8.40
2018-12-18T23:46:00.105Z,14.43
2018-12-18T23:48:27.543Z,15.07
2018-12-18T23:50:55.035Z,15.10
2018-12-18T23:53:22.462Z,16.35
2018-12-18T23:55:49.851Z,25.80
2018-12-18T23:58:18.110Z,9.95
